Time;durP1;ratioP1;P1;durP2;ratioP2;P2;SDS_P1;SDS_P2;PMS_P1;PMS_P2;Temp;Humidity;BMP_temperature;BMP_pressure;BME280_temperature;BME280_humidity;BME280_pressure;Samples;Min_cycle;Max_cycle;Signal;HPM_P1;HPM_P2
2023/07/01 00:00:29;;;;;;;12.55;11.05;;;512.20;2380.80;;;;;;5047027;28;20017;-62
2023/07/01 00:02:55;;;;;;;11.55;10.40;;;512.20;2380.80;;;;;;5049527;28;20028;-63
2023/07/01 00:05:20;;;;;;;12.00;10.80;;;512.20;2380.80;;;;;;5049536;28;20417;-62
2023/07/01 00:07:47;;;;;;;12.25;10.07;;;512.20;2380.80;;;;;;5049120;28;20035;-63
2023/07/01 00:10:12;;;;;;;15.32;11.60;;;512.10;2380.80;;;;;;5049625;28;20212;-62
2023/07/01 00:12:38;;;;;;;13.18;10.65;;;512.10;2380.80;;;;;;5049515;28;20130;-62
2023/07/01 00:15:04;;;;;;;13.50;11.45;;;512.00;2380.80;;;;;;5049065;28;20033;-63
2023/07/01 00:17:30;;;;;;;12.32;11.13;;;512.10;2380.80;;;;;;5049433;28;20483;-62
2023/07/01 00:19:56;;;;;;;13.07;10.95;;;487.30;2380.80;;;;;;5048973;28;20055;-63
2023/07/01 00:22:21;;;;;;;13.13;11.20;;;487.30;2380.80;;;;;;5049255;28;20025;-63
2023/07/01 00:24:47;;;;;;;12.55;11.30;;;487.30;2380.80;;;;;;5048694;28;20036;-62
2023/07/01 00:27:12;;;;;;;13.48;10.50;;;487.10;2380.80;;;;;;5038558;28;20442;-65
2023/07/01 00:29:38;;;;;;;12.43;11.13;;;487.10;2380.80;;;;;;5027615;28;20033;-62
2023/07/01 00:32:04;;;;;;;12.95;11.48;;;487.00;2380.80;;;;;;5041935;28;20116;-65
2023/07/01 00:34:30;;;;;;;13.55;11.20;;;487.00;2380.80;;;;;;5036085;28;20036;-62
2023/07/01 00:36:56;;;;;;;12.60;11.35;;;487.00;2380.80;;;;;;5048507;28;20029;-62
2023/07/01 00:39:21;;;;;;;13.02;10.18;;;487.00;2380.80;;;;;;5049139;28;20114;-63
2023/07/01 00:41:53;;;;;;;11.43;10.07;;;487.00;2380.80;;;;;;5048676;28;20119;-63
2023/07/01 00:44:19;;;;;;;13.35;10.20;;;487.00;2380.80;;;;;;5048515;28;20025;-62
2023/07/01 00:46:45;;;;;;;11.75;10.50;;;487.10;2380.80;;;;;;5048491;28;20174;-63
2023/07/01 00:49:11;;;;;;;11.77;10.57;;;487.10;2380.80;;;;;;5040947;28;20044;-62
2023/07/01 00:51:37;;;;;;;11.30;9.60;;;487.10;2380.80;;;;;;5043385;28;20029;-62
2023/07/01 00:54:03;;;;;;;10.27;9.23;;;487.00;2380.80;;;;;;5040741;28;20025;-62
2023/07/01 00:56:30;;;;;;;11.90;10.57;;;487.10;2380.80;;;;;;5043697;28;20018;-64
2023/07/01 00:58:55;;;;;;;11.13;9.85;;;487.00;2380.80;;;;;;5053140;28;20108;-63
2023/07/01 01:01:26;;;;;;;13.55;10.13;;;487.00;2380.80;;;;;;5052946;28;20147;-63
2023/07/01 01:04:33;;;;;;;11.77;10.68;;;486.80;2380.80;;;;;;5052792;28;20025;-63
2023/07/01 01:07:05;;;;;;;12.75;9.85;;;486.70;2380.80;;;;;;5052239;28;20446;-63
2023/07/01 01:10:04;;;;;;;10.82;9.73;;;486.80;2380.80;;;;;;5052758;28;20091;-62
2023/07/01 01:12:31;;;;;;;11.13;9.80;;;486.70;2380.80;;;;;;5052332;28;20082;-63
2023/07/01 01:14:59;;;;;;;11.98;10.15;;;486.80;2380.80;;;;;;5052242;28;20040;-63
2023/07/01 01:17:27;;;;;;;12.23;10.88;;;486.80;2380.80;;;;;;5052714;28;20021;-63
2023/07/01 01:20:12;;;;;;;11.00;9.90;;;486.70;2380.80;;;;;;5053137;28;20409;-63
2023/07/01 01:23:02;;;;;;;10.73;9.73;;;486.70;2380.80;;;;;;5050745;28;20075;-63
2023/07/01 01:26:08;;;;;;;11.90;10.35;;;486.70;2380.80;;;;;;5030384;28;20027;-63
2023/07/01 01:28:36;;;;;;;12.82;11.45;;;486.50;2380.80;;;;;;5049975;28;20057;-63
2023/07/01 01:31:02;;;;;;;12.60;9.63;;;486.50;2380.80;;;;;;5049934;28;20375;-64
2023/07/01 01:33:28;;;;;;;11.70;10.38;;;486.50;2380.80;;;;;;5049797;28;20025;-63
2023/07/01 01:36:06;;;;;;;11.43;9.52;;;486.40;2380.80;;;;;;5023648;28;20026;-63
2023/07/01 01:38:34;;;;;;;10.13;9.13;;;486.40;2380.80;;;;;;5049566;28;20227;-63
2023/07/01 01:41:07;;;;;;;10.40;9.32;;;486.50;2380.80;;;;;;5049751;28;20056;-63
2023/07/01 01:43:49;;;;;;;11.27;9.55;;;486.40;2380.80;;;;;;5049745;28;20029;-63
2023/07/01 01:46:17;;;;;;;11.65;10.50;;;486.40;2380.80;;;;;;5049670;28;20029;-64
2023/07/01 01:48:43;;;;;;;11.43;10.13;;;461.70;2380.80;;;;;;5049733;28;20048;-65
2023/07/01 01:51:09;;;;;;;11.15;8.55;;;461.70;2380.80;;;;;;5049420;28;20033;-63
2023/07/01 01:53:38;;;;;;;13.23;9.60;;;461.70;2380.80;;;;;;5049207;28;20437;-64
2023/07/01 01:56:05;;;;;;;13.13;9.15;;;486.40;2380.80;;;;;;5036706;28;20434;-63
2023/07/01 01:58:31;;;;;;;10.45;8.50;;;486.40;2380.80;;;;;;5049448;28;20071;-63
2023/07/01 02:00:57;;;;;;;9.95;8.90;;;486.40;2380.80;;;;;;5049200;28;20017;-64
2023/07/01 02:03:23;;;;;;;11.07;8.23;;;486.50;2380.80;;;;;;5049834;28;20076;-63
2023/07/01 02:05:49;;;;;;;10.65;9.43;;;486.60;2380.80;;;;;;5051495;28;20025;-63
2023/07/01 02:08:14;;;;;;;10.27;9.20;;;486.60;2380.80;;;;;;5050338;28;20501;-63
2023/07/01 02:10:40;;;;;;;11.82;9.50;;;486.60;2380.80;;;;;;5051367;28;20025;-63
2023/07/01 02:13:06;;;;;;;14.75;9.25;;;486.50;2380.80;;;;;;5050702;28;20051;-63
2023/07/01 02:15:31;;;;;;;13.05;9.43;;;486.50;2380.80;;;;;;5051584;28;20096;-63
2023/07/01 02:17:57;;;;;;;10.00;8.85;;;461.70;2380.80;;;;;;5051324;28;20357;-64
2023/07/01 02:20:23;;;;;;;9.57;8.55;;;461.70;2380.80;;;;;;5044762;28;20460;-63
2023/07/01 02:22:49;;;;;;;11.25;9.00;;;461.70;2380.80;;;;;;5044664;28;20124;-63
2023/07/01 02:25:15;;;;;;;11.00;8.90;;;461.60;2380.80;;;;;;5051163;28;20033;-63
2023/07/01 02:27:41;;;;;;;9.77;8.43;;;461.70;2380.80;;;;;;5051174;28;20475;-63
2023/07/01 02:30:07;;;;;;;12.98;8.23;;;461.70;2380.80;;;;;;5051074;28;20059;-63
2023/07/01 02:32:33;;;;;;;10.77;8.35;;;461.60;2380.80;;;;;;5050868;28;20469;-63
2023/07/01 02:34:59;;;;;;;10.02;9.02;;;461.50;2380.80;;;;;;5050801;28;20025;-64
2023/07/01 02:37:24;;;;;;;11.30;8.35;;;461.50;2380.80;;;;;;5050439;28;20048;-63
2023/07/01 02:39:50;;;;;;;11.73;9.85;;;461.50;2380.80;;;;;;5051007;28;20029;-63
2023/07/01 02:42:19;;;;;;;10.57;8.85;;;461.70;2380.80;;;;;;5050469;28;20029;-63
2023/07/01 02:44:46;;;;;;;10.02;8.60;;;461.70;2380.80;;;;;;5050813;28;20024;-63
2023/07/01 02:47:12;;;;;;;11.38;8.32;;;461.70;2380.80;;;;;;5050895;28;20025;-63
2023/07/01 02:49:40;;;;;;;9.70;8.55;;;461.70;2380.80;;;;;;5050893;28;20401;-63
2023/07/01 02:52:09;;;;;;;11.10;9.07;;;461.70;2380.80;;;;;;5050709;28;20028;-63
2023/07/01 02:54:39;;;;;;;11.73;9.35;;;461.70;2380.80;;;;;;5050790;28;20024;-64
2023/07/01 02:57:09;;;;;;;10.15;8.18;;;461.70;2380.80;;;;;;5050684;28;20108;-64
2023/07/01 02:59:36;;;;;;;8.73;7.55;;;486.40;2380.80;;;;;;5050807;28;20437;-64
2023/07/01 03:02:04;;;;;;;9.65;8.00;;;461.70;2380.80;;;;;;5049938;28;20483;-63
2023/07/01 03:04:30;;;;;;;11.57;8.52;;;461.70;2380.80;;;;;;5050546;28;20025;-64
2023/07/01 03:06:56;;;;;;;9.50;8.13;;;486.40;2380.80;;;;;;5050139;28;21105;-63
2023/07/01 03:09:22;;;;;;;9.63;8.02;;;486.50;2380.80;;;;;;5050811;28;20037;-63
2023/07/01 03:11:48;;;;;;;12.57;8.68;;;486.40;2380.80;;;;;;5049926;28;20017;-63
2023/07/01 03:14:14;;;;;;;7.63;6.82;;;486.40;2380.80;;;;;;5049883;28;20486;-63
2023/07/01 03:16:43;;;;;;;12.70;9.25;;;486.40;2380.80;;;;;;5050572;28;20021;-63
2023/07/01 03:19:09;;;;;;;9.80;8.23;;;486.50;2380.80;;;;;;5050367;28;20112;-63
2023/07/01 03:21:36;;;;;;;8.65;7.65;;;486.60;2380.80;;;;;;5048989;28;20061;-63
2023/07/01 03:24:01;;;;;;;10.70;7.68;;;486.50;2380.80;;;;;;5049915;28;20029;-63
2023/07/01 03:26:27;;;;;;;11.20;8.35;;;486.50;2380.80;;;;;;5049796;28;20548;-64
2023/07/01 03:28:53;;;;;;;10.07;7.88;;;486.60;2380.80;;;;;;5050464;28;20129;-63
2023/07/01 03:31:20;;;;;;;9.68;7.65;;;486.80;2380.80;;;;;;5050148;28;20020;-63
2023/07/01 03:33:46;;;;;;;9.75;7.88;;;486.90;2380.80;;;;;;5049877;28;20037;-63
2023/07/01 03:36:11;;;;;;;9.90;8.35;;;486.90;2380.80;;;;;;5049925;28;20031;-63
2023/07/01 03:38:37;;;;;;;8.65;7.30;;;486.90;2380.80;;;;;;5049536;28;20053;-62
2023/07/01 03:41:03;;;;;;;9.32;7.47;;;487.00;2380.80;;;;;;5049876;28;20028;-63
2023/07/01 03:43:29;;;;;;;8.45;7.03;;;487.10;2380.80;;;;;;5049718;28;20031;-63
2023/07/01 03:45:55;;;;;;;11.50;8.60;;;487.20;2380.80;;;;;;5049673;28;20052;-64
2023/07/01 03:48:20;;;;;;;8.45;7.18;;;487.30;2380.80;;;;;;5049851;28;20036;-63
2023/07/01 03:50:46;;;;;;;8.35;7.38;;;487.30;2380.80;;;;;;5049753;28;20033;-63
2023/07/01 03:53:12;;;;;;;8.10;6.38;;;512.00;2380.80;;;;;;5049475;28;20075;-63
2023/07/01 03:55:37;;;;;;;9.52;6.97;;;512.00;2380.80;;;;;;5049297;28;20036;-63
2023/07/01 03:58:04;;;;;;;9.25;7.30;;;512.00;2380.80;;;;;;5049803;28;20502;-63
2023/07/01 04:00:30;;;;;;;10.18;7.60;;;512.10;2380.80;;;;;;5049654;28;20501;-64
2023/07/01 04:03:02;;;;;;;11.50;7.63;;;512.10;2380.80;;;;;;5049573;28;20016;-63
2023/07/01 04:05:28;;;;;;;8.63;7.53;;;512.20;2380.80;;;;;;5048839;28;20490;-63
2023/07/01 04:07:54;;;;;;;8.77;7.88;;;512.40;2380.80;;;;;;5049287;28;20028;-63
2023/07/01 04:10:19;;;;;;;8.90;7.38;;;512.40;2380.80;;;;;;5049173;28;20029;-63
2023/07/01 04:12:45;;;;;;;8.25;6.90;;;512.20;2380.80;;;;;;5049259;28;20032;-63
2023/07/01 04:15:11;;;;;;;8.73;6.63;;;512.20;2380.80;;;;;;5049492;28;20104;-63
2023/07/01 04:17:40;;;;;;;7.68;6.45;;;512.10;2380.80;;;;;;5049286;28;20047;-63
2023/07/01 04:20:06;;;;;;;8.45;7.03;;;512.40;2380.80;;;;;;5049300;28;20032;-63
2023/07/01 04:22:32;;;;;;;8.18;6.00;;;512.60;2380.80;;;;;;5049282;28;20095;-64
2023/07/01 04:24:58;;;;;;;7.97;6.72;;;512.90;2380.80;;;;;;5048898;28;20033;-64
2023/07/01 04:27:24;;;;;;;7.30;6.10;;;537.80;2406.40;;;;;;5049366;28;20111;-63
2023/07/01 04:29:49;;;;;;;7.40;6.63;;;538.10;2406.40;;;;;;5044204;28;20025;-64
2023/07/01 04:32:15;;;;;;;9.85;5.93;;;563.20;2432.00;;;;;;5040250;28;20103;-63
2023/07/01 04:34:41;;;;;;;7.75;6.95;;;563.80;2432.00;;;;;;5048806;28;20021;-63
2023/07/01 04:37:06;;;;;;;7.18;6.47;;;640.90;2432.00;;;;;;5037096;28;20036;-63
2023/07/01 04:39:32;;;;;;;14.27;6.90;;;742.90;2048.00;;;;;;5047222;28;20068;-63
2023/07/01 04:41:58;;;;;;;11.13;10.10;;;819.40;1792.00;;;;;;5048470;28;20025;-64
2023/07/01 04:44:24;;;;;;;6.97;6.35;;;870.60;1638.40;;;;;;5044145;28;20026;-63
2023/07/01 04:46:50;;;;;;;7.45;6.63;;;896.80;1510.40;;;;;;5040736;28;20017;-64
2023/07/01 04:49:16;;;;;;;7.65;6.45;;;;;;;;;;5048738;28;20078;-63
2023/07/01 04:51:42;;;;;;;6.95;6.13;;;922.50;1459.20;;;;;;5049144;28;20486;-63
2023/07/01 04:54:08;;;;;;;7.53;6.40;;;922.00;1408.00;;;;;;5048190;28;20029;-63
2023/07/01 04:56:33;;;;;;;6.75;5.82;;;871.10;1484.80;;;;;;5048946;28;20032;-63
2023/07/01 04:59:00;;;;;;;8.20;6.45;;;845.10;1561.60;;;;;;5048649;28;20025;-64
2023/07/01 05:01:26;;;;;;;8.48;6.28;;;845.00;1561.60;;;;;;5048552;28;20036;-64
2023/07/01 05:03:52;;;;;;;9.93;6.82;;;794.20;1664.00;;;;;;5048669;28;20490;-63
2023/07/01 05:06:18;;;;;;;9.15;6.57;;;768.10;1715.20;;;;;;5048362;28;20021;-63
2023/07/01 05:08:44;;;;;;;9.77;5.68;;;742.50;1792.00;;;;;;5048247;28;20035;-63
2023/07/01 05:11:10;;;;;;;8.50;6.65;;;717.20;1843.20;;;;;;5048879;28;20036;-63
2023/07/01 05:13:36;;;;;;;9.60;6.65;;;691.90;1894.40;;;;;;5048336;28;20449;-63
2023/07/01 05:16:01;;;;;;;9.15;6.57;;;666.50;1971.20;;;;;;5048530;28;20425;-63
2023/07/01 05:18:27;;;;;;;7.75;6.95;;;666.20;1996.80;;;;;;5034735;28;20029;-64
2023/07/01 05:20:53;;;;;;;9.50;6.20;;;665.90;1996.80;;;;;;5038213;28;20534;-63
2023/07/01 05:23:18;;;;;;;11.57;6.80;;;665.70;2022.40;;;;;;5035723;28;20025;-62
2023/07/01 05:25:44;;;;;;;7.18;6.47;;;640.90;2073.60;;;;;;5028260;28;20029;-64
2023/07/01 05:28:10;;;;;;;7.35;6.47;;;640.60;2124.80;;;;;;5040514;28;20028;-64
2023/07/01 05:30:36;;;;;;;7.18;6.25;;;640.30;2201.60;;;;;;5035223;28;20079;-63
2023/07/01 05:33:02;;;;;;;10.60;7.40;;;640.20;2201.60;;;;;;5048420;28;20029;-63
2023/07/01 05:35:28;;;;;;;8.68;7.63;;;615.20;2227.20;;;;;;5048679;28;20021;-63
2023/07/01 05:37:54;;;;;;;7.63;6.63;;;640.00;2201.60;;;;;;5035329;28;20045;-63
2023/07/01 05:40:20;;;;;;;8.38;6.82;;;640.60;2150.40;;;;;;5048056;28;20025;-66
2023/07/01 05:42:45;;;;;;;7.93;7.13;;;640.60;2176.00;;;;;;5048133;28;20040;-63
2023/07/01 05:45:12;;;;;;;8.65;7.00;;;640.90;2201.60;;;;;;5050922;28;20029;-63
2023/07/01 05:47:38;;;;;;;7.90;5.75;;;666.50;2124.80;;;;;;5051816;28;20529;-63
2023/07/01 05:50:04;;;;;;;8.88;6.55;;;666.00;2150.40;;;;;;5047246;28;20091;-62
2023/07/01 05:52:30;;;;;;;9.45;6.55;;;666.00;2150.40;;;;;;5042843;28;20024;-63
2023/07/01 05:54:56;;;;;;;7.72;6.60;;;665.70;2176.00;;;;;;5051717;28;20025;-63
2023/07/01 05:57:21;;;;;;;8.52;6.90;;;640.90;2201.60;;;;;;5051690;28;20051;-63
2023/07/01 05:59:47;;;;;;;6.78;6.18;;;640.90;2227.20;;;;;;5051736;28;20090;-64
2023/07/01 06:02:13;;;;;;;8.90;6.93;;;640.60;2278.40;;;;;;5051725;28;20378;-63
2023/07/01 06:04:38;;;;;;;8.55;7.13;;;640.30;2227.20;;;;;;5051689;28;20029;-62
2023/07/01 06:07:04;;;;;;;10.40;6.82;;;640.70;2201.60;;;;;;5051367;28;20039;-63
2023/07/01 06:09:30;;;;;;;8.05;6.40;;;665.60;2201.60;;;;;;5051598;28;20045;-63
2023/07/01 06:11:55;;;;;;;16.23;8.80;;;665.80;2201.60;;;;;;5047114;28;20049;-63
2023/07/01 06:14:21;;;;;;;8.40;7.60;;;691.20;2176.00;;;;;;5042423;28;20538;-63
2023/07/01 06:16:47;;;;;;;8.68;7.68;;;794.20;1868.80;;;;;;5051415;28;20494;-64
2023/07/01 06:19:12;;;;;;;8.80;8.00;;;896.20;1612.80;;;;;;5037862;28;20025;-63
2023/07/01 06:21:38;;;;;;;7.97;7.15;;;973.00;1484.80;;;;;;5050940;28;20013;-64
2023/07/01 06:24:04;;;;;;;8.75;8.00;;;1024.20;1331.20;;;;;;5051175;28;20058;-63
2023/07/01 06:26:30;;;;;;;8.98;8.27;;;1050.20;1280.00;;;;;;5051477;28;20060;-64
2023/07/01 06:28:55;;;;;;;9.45;8.57;;;1101.20;1203.20;;;;;;5050844;28;20065;-63
2023/07/01 06:31:21;;;;;;;9.15;8.45;;;1126.60;1203.20;;;;;;5051390;28;20029;-64
2023/07/01 06:33:48;;;;;;;9.63;8.93;;;;;;;;;;5051002;28;20028;-63
2023/07/01 06:36:17;;;;;;;9.93;9.13;;;1152.10;1152.00;;;;;;5051292;28;20043;-66
2023/07/01 06:38:43;;;;;;;10.43;9.63;;;1178.30;1075.20;;;;;;5050800;28;20107;-63
2023/07/01 06:41:09;;;;;;;10.40;9.55;;;1203.30;1049.60;;;;;;5051277;28;20052;-65
2023/07/01 06:43:39;;;;;;;9.88;9.18;;;1178.30;1024.00;;;;;;5034048;28;20521;-63
2023/07/01 06:46:06;;;;;;;10.15;9.45;;;1203.90;1024.00;;;;;;5029848;28;20442;-63
2023/07/01 06:48:32;;;;;;;9.60;8.80;;;1204.10;972.80;;;;;;5030470;28;20069;-68
2023/07/01 06:50:58;;;;;;;10.25;9.40;;;1229.20;998.40;;;;;;5030800;28;20030;-64
2023/07/01 06:53:23;;;;;;;10.77;10.05;;;1254.40;1024.00;;;;;;5047126;28;20418;-63
2023/07/01 06:55:49;;;;;;;11.80;10.75;;;1254.60;998.40;;;;;;5037356;28;20025;-64
2023/07/01 06:58:15;;;;;;;11.07;10.27;;;1280.00;998.40;;;;;;5037197;28;20475;-64
2023/07/01 07:00:41;;;;;;;11.23;10.38;;;1280.20;972.80;;;;;;5036563;28;20021;-64
2023/07/01 07:03:07;;;;;;;10.65;9.85;;;1280.20;998.40;;;;;;5039864;28;20454;-63
2023/07/01 07:05:33;;;;;;;11.85;10.65;;;1280.90;947.20;;;;;;5033393;28;20029;-64
2023/07/01 07:07:59;;;;;;;11.38;10.38;;;1280.90;947.20;;;;;;5050487;28;20471;-63
2023/07/01 07:10:25;;;;;;;13.82;12.73;;;1305.60;921.60;;;;;;5036726;28;20038;-68
2023/07/01 07:12:51;;;;;;;12.82;11.93;;;1305.70;921.60;;;;;;5041698;28;20025;-64
2023/07/01 07:15:16;;;;;;;13.10;11.77;;;1280.70;921.60;;;;;;5050226;28;20036;-64
2023/07/01 07:17:42;;;;;;;12.52;11.40;;;1280.20;947.20;;;;;;5043841;28;20021;-63
2023/07/01 07:20:08;;;;;;;13.68;12.20;;;1255.00;972.80;;;;;;5036169;28;20033;-64
2023/07/01 07:22:34;;;;;;;12.52;11.50;;;1203.80;998.40;;;;;;5050055;28;20025;-64
2023/07/01 07:25:00;;;;;;;12.57;11.48;;;;;;;;;;5049861;28;20025;-64
2023/07/01 07:27:26;;;;;;;12.75;11.07;;;1203.90;972.80;;;;;;5048870;28;20352;-66
2023/07/01 07:29:51;;;;;;;11.75;10.75;;;1228.90;998.40;;;;;;5050090;28;20039;-64
2023/07/01 07:32:17;;;;;;;13.95;12.55;;;1178.10;998.40;;;;;;5050332;28;20463;-64
2023/07/01 07:34:43;;;;;;;11.10;10.30;;;1229.20;998.40;;;;;;5041590;28;20032;-64
2023/07/01 07:37:08;;;;;;;12.10;11.10;;;1203.90;972.80;;;;;;5029609;28;20116;-66
2023/07/01 07:39:34;;;;;;;12.52;11.27;;;1229.30;972.80;;;;;;5030227;28;20057;-63
2023/07/01 07:42:00;;;;;;;11.93;10.85;;;1228.80;998.40;;;;;;5029958;28;20388;-65
2023/07/01 07:44:26;;;;;;;12.20;11.10;;;1203.40;998.40;;;;;;5032782;28;20021;-64
2023/07/01 07:46:51;;;;;;;15.73;13.07;;;1229.40;972.80;;;;;;5049720;28;20452;-65
2023/07/01 07:49:17;;;;;;;14.60;12.27;;;1229.40;972.80;;;;;;5049572;28;20479;-65
2023/07/01 07:51:43;;;;;;;12.05;10.93;;;1229.20;972.80;;;;;;5049897;28;20013;-64
2023/07/01 07:54:09;;;;;;;12.82;11.73;;;1229.20;972.80;;;;;;5049361;28;20637;-63
2023/07/01 07:56:34;;;;;;;12.98;11.98;;;1228.80;998.40;;;;;;5043680;28;20025;-65
2023/07/01 07:59:00;;;;;;;13.30;11.85;;;1203.60;972.80;;;;;;5029911;28;20145;-65
2023/07/01 08:01:26;;;;;;;14.90;12.05;;;1229.00;972.80;;;;;;5048430;28;20459;-64
2023/07/01 08:03:51;;;;;;;13.23;11.95;;;1203.40;998.40;;;;;;5049327;28;20032;-64
2023/07/01 08:06:17;;;;;;;12.48;11.27;;;1178.20;972.80;;;;;;5048933;28;20025;-64
2023/07/01 08:08:43;;;;;;;12.15;11.10;;;1203.70;972.80;;;;;;5048673;28;20025;-66
2023/07/01 08:11:09;;;;;;;13.55;11.32;;;1203.40;972.80;;;;;;5049251;28;20456;-63
2023/07/01 08:13:34;;;;;;;13.63;9.98;;;1177.70;972.80;;;;;;5049436;28;20032;-63
2023/07/01 08:16:00;;;;;;;14.25;10.18;;;1127.10;998.40;;;;;;5049012;28;20021;-62
2023/07/01 08:18:26;;;;;;;18.85;11.23;;;1101.30;1049.60;;;;;;5049426;28;20470;-62
2023/07/01 08:20:51;;;;;;;15.30;8.40;;;1049.90;1126.40;;;;;;5048897;28;20360;-62
2023/07/01 08:23:17;;;;;;;15.30;8.65;;;999.30;1152.00;;;;;;5049155;28;20025;-62
2023/07/01 08:25:43;;;;;;;12.65;8.02;;;973.70;1126.40;;;;;;5048986;28;20051;-62
2023/07/01 08:28:09;;;;;;;12.63;8.60;;;948.10;1177.60;;;;;;5048540;28;20017;-61
2023/07/01 08:30:35;;;;;;;16.52;8.77;;;922.30;1228.80;;;;;;5048277;28;20112;-63
2023/07/01 08:33:01;;;;;;;10.40;7.95;;;922.00;1254.40;;;;;;5048719;28;20422;-64
2023/07/01 08:35:29;;;;;;;10.20;6.75;;;921.60;1228.80;;;;;;5048713;28;20043;-61
2023/07/01 08:37:55;;;;;;;13.45;6.53;;;896.70;1177.60;;;;;;5046741;28;20045;-61
2023/07/01 08:40:21;;;;;;;13.23;7.20;;;896.60;1203.20;;;;;;5029277;28;20045;-64
2023/07/01 08:43:02;;;;;;;7.90;6.70;;;871.20;1280.00;;;;;;5046887;28;20025;-63
2023/07/01 08:45:30;;;;;;;9.40;6.45;;;870.60;1254.40;;;;;;5046357;28;20108;-61
2023/07/01 08:47:59;;;;;;;10.18;7.07;;;845.30;1280.00;;;;;;5027698;28;20025;-62
2023/07/01 08:50:35;;;;;;;8.35;6.80;;;845.70;1254.40;;;;;;5028331;28;20040;-62
2023/07/01 08:53:06;;;;;;;10.13;7.78;;;845.60;1280.00;;;;;;5016026;28;20040;-60
2023/07/01 08:55:33;;;;;;;8.68;6.50;;;870.60;1331.20;;;;;;5028289;28;20018;-62
2023/07/01 08:58:00;;;;;;;7.90;6.60;;;870.50;1280.00;;;;;;5036910;28;20033;-61
2023/07/01 09:00:26;;;;;;;7.25;5.80;;;845.50;1280.00;;;;;;5034992;28;20144;-61
2023/07/01 09:02:52;;;;;;;8.00;7.20;;;845.40;1280.00;;;;;;5038360;28;20116;-60
2023/07/01 09:05:18;;;;;;;14.05;7.90;;;845.70;1331.20;;;;;;5041501;28;20048;-63
2023/07/01 09:07:44;;;;;;;8.15;6.43;;;870.50;1280.00;;;;;;5046752;28;20017;-61
2023/07/01 09:10:12;;;;;;;9.63;7.03;;;845.70;1280.00;;;;;;5048210;28;20033;-61
2023/07/01 09:12:37;;;;;;;7.93;7.10;;;870.50;1305.60;;;;;;5047400;28;20028;-61
2023/07/01 09:15:06;;;;;;;9.07;6.82;;;870.50;1305.60;;;;;;5047159;28;20029;-61
2023/07/01 09:17:36;;;;;;;9.35;6.20;;;845.50;1305.60;;;;;;5047527;28;20510;-63
2023/07/01 09:20:09;;;;;;;9.07;6.65;;;845.30;1305.60;;;;;;5051686;28;20048;-61
2023/07/01 09:22:41;;;;;;;8.55;7.07;;;845.50;1305.60;;;;;;5051041;28;20036;-61
2023/07/01 09:25:07;;;;;;;9.35;7.00;;;870.50;1305.60;;;;;;5051223;28;20044;-62
2023/07/01 09:27:49;;;;;;;7.82;7.10;;;845.50;1331.20;;;;;;5050382;28;20476;-62
2023/07/01 09:30:25;;;;;;;8.88;7.10;;;845.40;1305.60;;;;;;5051627;28;20139;-63
2023/07/01 09:32:51;;;;;;;6.78;6.10;;;845.70;1305.60;;;;;;5051576;28;20414;-61
2023/07/01 09:35:17;;;;;;;9.50;6.95;;;845.70;1305.60;;;;;;5051047;28;20486;-64
2023/07/01 09:37:43;;;;;;;16.58;7.45;;;845.20;1305.60;;;;;;5051236;28;20048;-62
2023/07/01 09:40:20;;;;;;;10.05;7.10;;;845.00;1331.20;;;;;;5051892;28;20453;-62
2023/07/01 09:42:56;;;;;;;8.38;6.88;;;845.20;1331.20;;;;;;5051989;28;20043;-62
2023/07/01 09:45:22;;;;;;;8.82;6.47;;;820.10;1305.60;;;;;;5050695;28;20025;-64
2023/07/01 09:47:54;;;;;;;8.63;6.30;;;845.20;1331.20;;;;;;5050849;28;20143;-62
2023/07/01 09:50:21;;;;;;;;;;;845.30;1331.20;;;;;;5052563;28;20028;-62
2023/07/01 09:52:48;;;;;;;9.05;6.78;;;845.30;1331.20;;;;;;5051501;28;19944;-62
2023/07/01 09:55:14;;;;;;;8.50;6.97;;;845.10;1331.20;;;;;;5052263;28;20033;-62
2023/07/01 09:57:41;;;;;;;7.43;6.70;;;845.40;1305.60;;;;;;5051406;28;20070;-62
2023/07/01 10:00:10;;;;;;;8.35;6.65;;;845.40;1331.20;;;;;;5051492;28;20037;-62
2023/07/01 10:02:35;;;;;;;7.75;6.60;;;845.10;1356.80;;;;;;5051690;28;20036;-62
2023/07/01 10:05:02;;;;;;;11.48;6.63;;;819.90;1331.20;;;;;;5051531;28;20025;-61
2023/07/01 10:07:28;;;;;;;7.53;6.78;;;844.90;1331.20;;;;;;5051346;28;20040;-62
2023/07/01 10:09:53;;;;;;;9.70;5.80;;;845.20;1331.20;;;;;;5046706;28;20036;-62
2023/07/01 10:12:20;;;;;;;7.63;6.18;;;845.70;1356.80;;;;;;5051332;28;20025;-62
2023/07/01 10:14:50;;;;;;;10.15;7.97;;;870.50;1433.60;;;;;;5042203;28;20029;-62
2023/07/01 10:17:17;;;;;;;8.15;6.30;;;845.40;1331.20;;;;;;5051138;28;20021;-62
2023/07/01 10:19:46;;;;;;;10.90;6.22;;;845.70;1331.20;;;;;;5051813;28;20549;-62
2023/07/01 10:22:29;;;;;;;9.80;6.35;;;845.70;1356.80;;;;;;5025101;28;20087;-61
2023/07/01 10:25:03;;;;;;;10.00;6.50;;;845.70;1382.40;;;;;;5050918;28;20095;-62
2023/07/01 10:27:42;;;;;;;7.40;6.70;;;845.40;1356.80;;;;;;5051006;28;20025;-62
2023/07/01 10:30:09;;;;;;;11.13;7.00;;;845.40;1356.80;;;;;;5050278;28;20374;-65
2023/07/01 10:32:35;;;;;;;12.43;7.20;;;845.60;1331.20;;;;;;5051073;28;20048;-62
2023/07/01 10:35:11;;;;;;;7.78;6.47;;;845.20;1331.20;;;;;;5050958;28;20395;-62
2023/07/01 10:37:37;;;;;;;9.43;6.13;;;845.60;1331.20;;;;;;5050407;28;20087;-62
2023/07/01 10:40:22;;;;;;;7.63;6.50;;;845.60;1382.40;;;;;;5048454;28;20069;-66
2023/07/01 10:42:48;;;;;;;8.93;6.43;;;845.70;1356.80;;;;;;5026400;28;20037;-62
2023/07/01 10:45:13;;;;;;;8.35;7.40;;;845.40;1356.80;;;;;;5050534;28;20471;-62
2023/07/01 10:48:03;;;;;;;7.88;6.85;;;845.20;1356.80;;;;;;5050926;28;20467;-62
2023/07/01 10:50:29;;;;;;;9.90;6.00;;;845.40;1356.80;;;;;;5050505;28;20024;-62
2023/07/01 10:52:58;;;;;;;8.20;6.90;;;845.30;1382.40;;;;;;5050661;28;20036;-62
2023/07/01 10:55:44;;;;;;;7.35;6.45;;;845.70;1356.80;;;;;;5036709;28;20013;-63
2023/07/01 10:58:15;;;;;;;12.32;6.80;;;870.50;1408.00;;;;;;5040697;28;20510;-62
2023/07/01 11:00:42;;;;;;;9.15;7.35;;;870.70;1331.20;;;;;;5051241;28;20025;-63
2023/07/01 11:03:32;;;;;;;7.18;6.47;;;870.90;1305.60;;;;;;5038952;28;20021;-62
2023/07/01 11:06:05;;;;;;;8.82;6.68;;;870.60;1356.80;;;;;;5027817;28;20071;-65
2023/07/01 11:08:43;;;;;;;8.30;6.60;;;870.60;1356.80;;;;;;5050299;28;20072;-64
2023/07/01 11:11:09;;;;;;;7.15;6.45;;;870.70;1356.80;;;;;;5050467;28;20475;-63
2023/07/01 11:13:37;;;;;;;8.38;6.88;;;870.80;1305.60;;;;;;5044894;28;20554;-66
2023/07/01 11:16:06;;;;;;;7.90;6.80;;;870.40;1356.80;;;;;;5038867;28;20021;-64
2023/07/01 11:18:50;;;;;;;10.13;7.53;;;870.60;1331.20;;;;;;5050152;28;20025;-64
2023/07/01 11:21:20;;;;;;;10.00;7.38;;;870.60;1305.60;;;;;;5038897;28;20040;-64
2023/07/01 11:23:53;;;;;;;7.50;6.43;;;870.70;1305.60;;;;;;5047891;28;20447;-63
2023/07/01 11:26:25;;;;;;;8.52;6.70;;;870.80;1382.40;;;;;;5050165;28;20048;-63
2023/07/01 11:28:51;;;;;;;7.72;6.93;;;870.60;1356.80;;;;;;5050743;28;20021;-63
2023/07/01 11:31:17;;;;;;;7.63;6.93;;;870.60;1356.80;;;;;;5049845;28;20031;-63
2023/07/01 11:33:48;;;;;;;7.22;6.43;;;870.40;1382.40;;;;;;5050246;28;20012;-63
2023/07/01 11:36:16;;;;;;;8.40;7.15;;;845.70;1408.00;;;;;;5037243;28;20029;-63
2023/07/01 11:38:46;;;;;;;10.15;6.45;;;845.70;1408.00;;;;;;5049639;28;20045;-63
2023/07/01 11:41:18;;;;;;;10.60;7.40;;;845.70;1433.60;;;;;;5049592;28;20036;-62
2023/07/01 11:43:44;;;;;;;9.43;7.03;;;845.50;1408.00;;;;;;5049015;28;20459;-63
2023/07/01 11:46:12;;;;;;;8.25;7.15;;;844.90;1459.20;;;;;;5049579;28;20037;-64
2023/07/01 11:48:39;;;;;;;10.77;7.38;;;844.80;1484.80;;;;;;5044115;28;20087;-64
2023/07/01 11:51:04;;;;;;;7.68;6.55;;;819.80;1510.40;;;;;;5041894;28;20090;-64
2023/07/01 11:53:30;;;;;;;10.35;6.80;;;794.40;1587.20;;;;;;5049746;28;20406;-65
2023/07/01 11:55:58;;;;;;;12.63;7.20;;;793.60;1612.80;;;;;;5037962;28;20021;-63
2023/07/01 11:58:31;;;;;;;23.77;7.95;;;768.20;1689.60;;;;;;5029290;28;20029;-63
2023/07/01 12:00:57;;;;;;;12.35;8.52;;;717.70;1868.80;;;;;;5048571;28;20060;-63
2023/07/01 12:03:24;;;;;;;14.50;8.52;;;691.70;1996.80;;;;;;5048498;28;20479;-65
2023/07/01 12:05:50;;;;;;;15.50;10.40;;;691.40;2022.40;;;;;;5049587;28;20463;-64
2023/07/01 12:08:15;;;;;;;10.27;8.77;;;691.60;1996.80;;;;;;5049200;28;20033;-65
2023/07/01 12:10:41;;;;;;;11.20;8.18;;;691.40;2022.40;;;;;;5049457;28;20021;-65
2023/07/01 12:13:08;;;;;;;17.80;8.43;;;691.80;1996.80;;;;;;5048882;28;20471;-63